createdAt,value
2022-09-05T00:02:18.198Z,2.80
2022-09-05T00:04:53.121Z,2.87
2022-09-05T00:07:37.452Z,3.73
2022-09-05T00:10:27.478Z,2.70
2022-09-05T00:13:11.195Z,3.20
2022-09-05T00:15:51.947Z,3.00
2022-09-05T00:24:18.581Z,3.03
2022-09-05T00:24:35.545Z,2.83
2022-09-05T00:25:06.935Z,2.63
2022-09-05T00:27:32.083Z,2.83
2022-09-05T00:31:05.875Z,3.33
2022-09-05T00:33:18.870Z,2.47
2022-09-05T00:35:57.308Z,2.83
2022-09-05T00:38:36.683Z,2.87
2022-09-05T00:41:12.321Z,3.10
2022-09-05T00:43:43.153Z,2.80
2022-09-05T00:46:17.507Z,3.20
2022-09-05T00:48:50.666Z,3.33
2022-09-05T00:51:34.481Z,3.00
2022-09-05T00:54:40.386Z,3.13
2022-09-05T00:57:40.302Z,3.07
2022-09-05T01:00:17.804Z,3.13
2022-09-05T01:03:22.172Z,2.93
2022-09-05T01:06:03.809Z,3.37
2022-09-05T01:08:53.095Z,3.10
2022-09-05T01:11:37.805Z,2.90
2022-09-05T01:14:16.703Z,3.17
2022-09-05T01:17:05.764Z,3.23
2022-09-05T01:19:47.132Z,2.83
2022-09-05T01:22:43.791Z,2.43
2022-09-05T01:25:28.419Z,2.90
2022-09-05T01:28:30.968Z,3.17
2022-09-05T01:30:57.517Z,3.50
2022-09-05T01:33:34.058Z,3.17
2022-09-05T01:36:40.172Z,3.10
2022-09-05T01:40:14.964Z,3.50
2022-09-05T01:42:16.247Z,3.30
2022-09-05T01:44:56.322Z,3.37
2022-09-05T01:47:35.401Z,3.00
2022-09-05T01:50:27.809Z,3.70
2022-09-05T01:53:16.569Z,3.93
2022-09-05T01:56:10.565Z,3.47
2022-09-05T01:58:56.453Z,2.93
2022-09-05T02:01:36.915Z,3.20
2022-09-05T02:04:25.769Z,3.07
2022-09-05T02:07:15.189Z,3.13
2022-09-05T02:10:22.235Z,3.00
2022-09-05T02:13:02.323Z,3.43
2022-09-05T02:15:45.126Z,3.10
2022-09-05T02:18:44.319Z,3.27
2022-09-05T02:21:22.261Z,3.40
2022-09-05T02:24:03.650Z,3.67
2022-09-05T02:26:37.126Z,3.57
2022-09-05T02:29:29.158Z,3.63
2022-09-05T02:32:02.359Z,3.10
2022-09-05T02:34:42.645Z,3.60
2022-09-05T02:37:21.476Z,3.70
2022-09-05T02:45:07.047Z,3.30
2022-09-05T02:45:16.770Z,3.43
2022-09-05T02:46:04.681Z,3.67
2022-09-05T02:48:48.069Z,4.47
2022-09-05T02:57:23.366Z,3.47
2022-09-05T02:57:28.443Z,3.53
2022-09-05T02:57:46.684Z,3.80
2022-09-05T03:00:13.263Z,3.60
2022-09-05T03:03:05.536Z,3.50
2022-09-05T03:05:39.289Z,3.70
2022-09-05T03:08:34.915Z,3.93
2022-09-05T03:11:44.759Z,3.50
2022-09-05T03:14:56.406Z,3.83
2022-09-05T03:18:20.542Z,3.87
2022-09-05T03:21:48.021Z,3.80
2022-09-05T03:24:57.430Z,4.30
2022-09-05T03:28:05.831Z,4.20
2022-09-05T03:30:44.832Z,3.70
2022-09-05T03:36:19.034Z,4.27
2022-09-05T03:39:28.181Z,4.00
2022-09-05T03:42:14.691Z,3.57
2022-09-05T03:44:59.673Z,4.13
2022-09-05T03:47:52.543Z,3.97
2022-09-05T03:57:08.458Z,3.63
2022-09-05T03:57:12.145Z,4.00
2022-09-05T03:57:38.716Z,4.17
2022-09-05T04:00:09.524Z,4.37
2022-09-05T04:08:11.435Z,4.00
2022-09-05T04:08:31.291Z,4.10
2022-09-05T04:08:41.945Z,4.23
2022-09-05T04:11:17.208Z,4.10
2022-09-05T04:13:53.386Z,4.70
2022-09-05T04:16:26.460Z,4.73
2022-09-05T04:19:05.974Z,3.80
2022-09-05T04:21:39.263Z,4.73
2022-09-05T04:24:11.127Z,5.13
2022-09-05T04:26:59.842Z,5.00
2022-09-05T04:29:40.958Z,5.20
2022-09-05T04:32:21.579Z,4.97
2022-09-05T04:35:08.363Z,5.23
2022-09-05T04:37:48.585Z,4.83
2022-09-05T04:40:58.291Z,4.73
2022-09-05T04:43:33.041Z,4.90
2022-09-05T04:46:21.942Z,4.80
2022-09-05T04:48:59.745Z,5.30
2022-09-05T04:52:08.043Z,4.50
2022-09-05T04:54:44.321Z,5.00
2022-09-05T04:57:25.439Z,4.87
2022-09-05T05:03:56.504Z,4.63
2022-09-05T05:06:12.393Z,4.63
2022-09-05T05:06:13.729Z,5.40
2022-09-05T05:08:50.442Z,4.90
2022-09-05T05:17:52.210Z,4.93
2022-09-05T05:18:06.878Z,4.93
2022-09-05T05:18:11.319Z,4.83
2022-09-05T05:20:42.528Z,4.90
2022-09-05T05:23:07.911Z,4.80
2022-09-05T05:25:45.691Z,4.73
2022-09-05T05:28:24.124Z,5.13
2022-09-05T05:31:01.514Z,4.77
2022-09-05T05:33:33.556Z,4.80
2022-09-05T05:36:05.471Z,4.80
2022-09-05T05:38:41.453Z,5.20
2022-09-05T05:41:18.525Z,4.87
2022-09-05T05:43:48.146Z,5.23
2022-09-05T05:46:29.209Z,4.97
2022-09-05T05:49:09.581Z,5.03
2022-09-05T05:52:01.337Z,5.00
2022-09-05T05:54:37.117Z,4.40
2022-09-05T05:57:39.596Z,4.67
2022-09-05T06:00:27.452Z,5.13
2022-09-05T06:03:29.020Z,4.40
2022-09-05T06:06:18.764Z,4.63
2022-09-05T06:13:55.787Z,4.67
2022-09-05T06:15:06.635Z,5.27
2022-09-05T06:15:31.484Z,4.80
2022-09-05T06:18:31.842Z,5.37
2022-09-05T06:22:10.394Z,4.87
2022-09-05T06:25:31.278Z,4.50
2022-09-05T06:28:19.286Z,4.77
2022-09-05T06:31:29.520Z,5.07
2022-09-05T06:34:27.971Z,5.50
2022-09-05T06:37:11.758Z,5.27
2022-09-05T06:40:02.132Z,5.33
2022-09-05T06:42:44.414Z,5.40
2022-09-05T06:45:35.516Z,4.93
2022-09-05T06:48:13.711Z,5.97
2022-09-05T06:51:13.504Z,5.40
2022-09-05T06:54:00.693Z,5.53
2022-09-05T06:56:40.408Z,5.27
2022-09-05T06:59:45.222Z,5.30
2022-09-05T07:02:23.906Z,5.03
2022-09-05T07:05:39.691Z,5.47
2022-09-05T07:08:35.136Z,5.47
2022-09-05T07:11:11.912Z,5.68
2022-09-05T07:13:54.737Z,5.33
2022-09-05T07:16:38.467Z,5.93
2022-09-05T07:19:26.820Z,5.30
2022-09-05T07:22:25.786Z,5.50
2022-09-05T07:25:08.767Z,6.38
2022-09-05T07:27:41.970Z,5.80
2022-09-05T07:30:29.041Z,5.38
2022-09-05T07:32:59.149Z,6.13
2022-09-05T07:35:31.168Z,6.10
2022-09-05T07:38:15.299Z,5.72
2022-09-05T07:40:52.299Z,5.68
2022-09-05T07:43:26.008Z,5.93
2022-09-05T07:46:06.794Z,6.10
2022-09-05T07:48:40.616Z,5.70
2022-09-05T07:56:46.381Z,5.88
2022-09-05T07:57:07.805Z,5.70
2022-09-05T07:59:54.435Z,5.85
2022-09-05T08:02:22.819Z,5.85
2022-09-05T08:04:51.505Z,5.50
2022-09-05T08:07:49.929Z,6.13
2022-09-05T08:10:17.152Z,6.28
2022-09-05T08:13:33.986Z,6.57
2022-09-05T08:16:13.229Z,6.32
2022-09-05T08:18:38.460Z,6.03
2022-09-05T08:21:13.504Z,6.22
2022-09-05T08:23:56.304Z,6.35
2022-09-05T08:26:34.441Z,6.63
2022-09-05T08:29:08.975Z,6.53
2022-09-05T08:31:41.984Z,6.25
2022-09-05T08:34:16.081Z,7.13
2022-09-05T08:36:47.489Z,6.00
2022-09-05T08:39:22.085Z,6.72
2022-09-05T08:42:20.374Z,6.20
2022-09-05T08:46:43.161Z,8.02
2022-09-05T08:47:57.561Z,6.97
2022-09-05T08:50:50.103Z,7.72
2022-09-05T08:53:46.682Z,7.20
2022-09-05T08:56:21.057Z,7.63
2022-09-05T08:59:28.392Z,7.10
2022-09-05T09:02:47.478Z,7.15
2022-09-05T09:05:14.157Z,7.32
2022-09-05T09:07:51.203Z,7.90
2022-09-05T09:10:29.977Z,7.68
2022-09-05T09:13:11.981Z,6.90
2022-09-05T09:15:46.122Z,7.88
2022-09-05T09:18:16.830Z,7.43
2022-09-05T09:20:52.816Z,7.43
2022-09-05T09:23:42.721Z,6.38
2022-09-05T09:26:17.074Z,6.82
2022-09-05T09:28:52.245Z,6.05
2022-09-05T09:31:38.949Z,6.32
2022-09-05T09:34:45.736Z,6.78
2022-09-05T09:37:50.644Z,5.85
2022-09-05T09:40:39.896Z,5.82
2022-09-05T09:43:25.654Z,5.90
2022-09-05T09:46:14.292Z,6.20
2022-09-05T09:48:59.882Z,5.68
2022-09-05T09:51:42.995Z,5.80
2022-09-05T09:54:35.623Z,5.50
2022-09-05T09:57:36.924Z,5.53
2022-09-05T10:00:09.724Z,5.45
2022-09-05T10:08:51.120Z,5.65
2022-09-05T10:10:53.209Z,5.72
2022-09-05T10:10:59.635Z,5.22
2022-09-05T10:13:08.957Z,4.95
2022-09-05T10:15:53.782Z,5.00
2022-09-05T10:18:39.462Z,5.00
2022-09-05T10:21:37.302Z,4.85
2022-09-05T10:24:35.514Z,5.03
2022-09-05T10:27:26.445Z,4.63
2022-09-05T10:30:07.816Z,5.20
2022-09-05T10:35:04.898Z,5.18
2022-09-05T10:35:43.641Z,5.30
2022-09-05T10:38:15.920Z,4.82
2022-09-05T10:41:14.617Z,5.10
2022-09-05T10:43:43.185Z,4.95
2022-09-05T10:46:49.054Z,5.30
2022-09-05T10:49:14.889Z,5.40
2022-09-05T10:51:53.669Z,5.72
2022-09-05T10:54:37.982Z,5.40
2022-09-05T10:57:21.701Z,5.05
2022-09-05T11:02:23.721Z,5.03
2022-09-05T11:03:01.293Z,5.22
2022-09-05T11:05:31.967Z,5.15
2022-09-05T11:08:09.070Z,5.45
2022-09-05T11:10:40.521Z,5.00
2022-09-05T11:13:32.636Z,4.68
2022-09-05T11:16:13.439Z,5.65
2022-09-05T11:18:56.086Z,5.18
2022-09-05T11:21:31.142Z,5.40
2022-09-05T11:24:05.743Z,5.53
2022-09-05T11:26:39.262Z,4.93
2022-09-05T11:29:11.087Z,5.15
2022-09-05T11:32:43.519Z,5.05
2022-09-05T11:39:54.895Z,5.00
2022-09-05T11:39:58.119Z,5.43
2022-09-05T11:41:47.520Z,4.60
2022-09-05T11:44:36.426Z,5.35
2022-09-05T11:47:36.294Z,5.78
2022-09-05T11:50:48.322Z,5.85
2022-09-05T11:53:53.074Z,5.47
2022-09-05T11:57:04.861Z,5.72
2022-09-05T12:00:31.414Z,5.32
2022-09-05T12:03:59.901Z,6.25
2022-09-05T12:06:57.371Z,5.90
2022-09-05T12:09:42.518Z,5.57
2022-09-05T12:12:38.509Z,5.82
2022-09-05T12:15:33.861Z,5.82
2022-09-05T12:18:21.595Z,5.88
2022-09-05T12:21:02.176Z,6.57
2022-09-05T12:24:08.301Z,6.13
2022-09-05T12:27:45.048Z,6.60
2022-09-05T12:29:36.222Z,6.05
2022-09-05T12:33:40.071Z,6.40
2022-09-05T12:36:09.705Z,6.40
2022-09-05T12:41:00.977Z,6.72
2022-09-05T12:41:45.235Z,6.07
2022-09-05T12:44:39.437Z,6.05
2022-09-05T12:47:16.965Z,6.40
2022-09-05T12:50:02.734Z,6.45
2022-09-05T12:52:42.746Z,6.82
2022-09-05T12:55:21.025Z,6.57
2022-09-05T13:02:57.506Z,6.13
2022-09-05T13:03:14.367Z,6.28
2022-09-05T13:03:53.466Z,6.15
2022-09-05T13:06:32.195Z,6.97
2022-09-05T13:09:07.056Z,6.53
2022-09-05T13:14:58.995Z,6.50
2022-09-05T13:15:02.696Z,7.10
2022-09-05T13:17:44.478Z,6.63
2022-09-05T13:20:21.867Z,6.20
2022-09-05T13:22:54.295Z,6.60
2022-09-05T13:25:27.130Z,6.88
2022-09-05T13:28:01.554Z,6.60
2022-09-05T13:35:36.674Z,6.60
2022-09-05T13:37:59.203Z,5.88
2022-09-05T13:38:20.157Z,6.40
2022-09-05T13:39:06.861Z,6.35
2022-09-05T13:41:38.095Z,6.78
2022-09-05T13:44:26.689Z,5.50
2022-09-05T13:47:01.159Z,6.18
2022-09-05T13:49:37.163Z,6.50
2022-09-05T13:52:28.011Z,7.00
2022-09-05T13:55:14.652Z,6.22
2022-09-05T13:57:47.228Z,6.32
2022-09-05T14:00:51.242Z,5.70
2022-09-05T14:03:58.219Z,5.72
2022-09-05T14:10:08.103Z,5.78
2022-09-05T14:12:40.324Z,5.65
2022-09-05T14:15:25.271Z,5.63
2022-09-05T14:18:02.989Z,5.10
2022-09-05T14:21:10.672Z,5.43
2022-09-05T14:23:53.828Z,5.38
2022-09-05T14:26:30.525Z,5.10
2022-09-05T14:29:16.615Z,5.20
2022-09-05T14:36:12.306Z,5.43
2022-09-05T14:37:46.093Z,5.13
2022-09-05T14:38:09.716Z,4.90
2022-09-05T14:41:34.986Z,4.85
2022-09-05T14:44:31.679Z,5.03
2022-09-05T14:47:35.284Z,4.88
2022-09-05T14:50:27.679Z,4.70
2022-09-05T14:55:57.204Z,4.43
2022-09-05T15:02:44.926Z,5.32
2022-09-05T15:02:52.914Z,4.63
2022-09-05T15:04:36.493Z,4.95
2022-09-05T15:07:11.674Z,4.65
2022-09-05T15:12:16.597Z,4.65
2022-09-05T15:12:39.718Z,4.68
2022-09-05T15:15:22.666Z,4.60
2022-09-05T15:17:54.644Z,4.75
2022-09-05T15:20:35.884Z,4.60
2022-09-05T15:23:16.180Z,4.85
2022-09-05T15:25:47.616Z,4.45
2022-09-05T15:28:21.936Z,4.88
2022-09-05T15:30:59.988Z,4.82
2022-09-05T15:33:30.308Z,4.22
2022-09-05T15:36:00.556Z,4.35
2022-09-05T15:38:34.961Z,4.55
2022-09-05T15:41:20.581Z,4.45
2022-09-05T15:43:58.234Z,4.57
2022-09-05T15:46:34.279Z,4.68
2022-09-05T15:49:05.399Z,4.78
2022-09-05T15:51:42.266Z,4.80
2022-09-05T15:54:14.039Z,4.50
2022-09-05T15:57:03.179Z,4.80
2022-09-05T15:59:37.902Z,4.93
2022-09-05T16:02:15.343Z,5.03
2022-09-05T16:08:54.223Z,4.72
2022-09-05T16:10:36.494Z,4.72
2022-09-05T16:11:07.022Z,5.25
2022-09-05T16:13:38.076Z,4.65
2022-09-05T16:22:02.565Z,4.45
2022-09-05T16:23:24.297Z,4.78
2022-09-05T16:23:27.593Z,4.82
2022-09-05T16:24:58.966Z,4.50
2022-09-05T16:27:53.655Z,4.43
2022-09-05T16:30:24.450Z,4.03
2022-09-05T16:32:58.356Z,4.32
2022-09-05T16:35:28.349Z,4.30
2022-09-05T16:38:04.145Z,3.72
2022-09-05T16:40:36.087Z,4.10
2022-09-05T16:43:08.038Z,3.92
2022-09-05T16:45:46.181Z,4.03
2022-09-05T16:48:46.010Z,4.18
2022-09-05T16:51:35.733Z,3.78
2022-09-05T16:54:11.696Z,4.28
2022-09-05T16:56:44.725Z,4.03
2022-09-05T16:59:17.614Z,3.50
2022-09-05T17:02:07.559Z,3.95
2022-09-05T17:05:03.336Z,3.88
2022-09-05T17:07:51.022Z,3.72
2022-09-05T17:10:23.484Z,3.70
2022-09-05T17:12:53.088Z,4.28
2022-09-05T17:15:26.201Z,3.70
2022-09-05T17:18:19.668Z,3.97
2022-09-05T17:20:52.031Z,3.70
2022-09-05T17:29:20.109Z,3.80
2022-09-05T17:29:25.566Z,3.90
2022-09-05T17:30:36.914Z,3.58
2022-09-05T17:32:06.041Z,3.95
2022-09-05T17:34:58.705Z,3.95
2022-09-05T17:38:12.181Z,3.40
2022-09-05T17:41:07.963Z,3.50
2022-09-05T17:43:39.705Z,3.92
2022-09-05T17:46:20.107Z,3.17
2022-09-05T17:49:19.936Z,3.67
2022-09-05T17:52:28.572Z,3.85
2022-09-05T17:54:57.914Z,3.85
2022-09-05T17:57:41.386Z,3.70
2022-09-05T18:00:49.376Z,3.75
2022-09-05T18:04:16.084Z,3.80
2022-09-05T18:07:00.407Z,3.80
2022-09-05T18:10:03.528Z,3.72
2022-09-05T18:13:13.224Z,4.03
2022-09-05T18:16:11.680Z,3.60
2022-09-05T18:19:32.438Z,3.42
2022-09-05T18:21:50.062Z,3.92
2022-09-05T18:24:33.243Z,3.75
2022-09-05T18:27:37.823Z,3.70
2022-09-05T18:30:09.802Z,3.50
2022-09-05T18:32:47.266Z,3.92
2022-09-05T18:35:36.829Z,3.70
2022-09-05T18:38:22.983Z,3.95
2022-09-05T18:41:14.815Z,3.80
2022-09-05T18:44:12.031Z,3.53
2022-09-05T18:46:47.207Z,3.45
2022-09-05T18:50:22.688Z,4.15
2022-09-05T18:52:17.283Z,3.58
2022-09-05T18:56:11.053Z,3.75
2022-09-05T18:57:49.814Z,3.80
2022-09-05T19:00:29.825Z,3.90
2022-09-05T19:03:17.590Z,3.92
2022-09-05T19:05:50.947Z,3.58
2022-09-05T19:08:29.080Z,3.53
2022-09-05T19:11:27.434Z,3.90
2022-09-05T19:13:57.808Z,4.50
2022-09-05T19:16:47.261Z,4.22
2022-09-05T19:19:20.682Z,4.25
2022-09-05T19:21:56.252Z,3.63
2022-09-05T19:24:45.750Z,3.80
2022-09-05T19:28:26.337Z,4.28
2022-09-05T19:36:51.434Z,3.90
2022-09-05T19:36:53.118Z,3.72
2022-09-05T19:37:07.775Z,3.90
2022-09-05T19:38:44.212Z,3.80
2022-09-05T19:47:31.500Z,3.95
2022-09-05T19:47:36.580Z,4.18
2022-09-05T19:47:48.704Z,4.30
2022-09-05T19:50:11.373Z,3.90
2022-09-05T19:52:41.159Z,4.03
2022-09-05T19:55:22.211Z,4.30
2022-09-05T19:58:05.232Z,3.67
2022-09-05T20:00:42.176Z,4.50
2022-09-05T20:03:21.444Z,4.10
2022-09-05T20:05:51.555Z,4.07
2022-09-05T20:08:35.785Z,3.92
2022-09-05T20:11:05.197Z,4.30
2022-09-05T20:13:34.214Z,4.13
2022-09-05T20:16:15.122Z,4.00
2022-09-05T20:18:45.453Z,4.20
2022-09-05T20:21:26.405Z,3.78
2022-09-05T20:24:06.315Z,3.92
2022-09-05T20:26:35.453Z,3.80
2022-09-05T20:29:09.099Z,3.88
2022-09-05T20:31:38.014Z,3.90
2022-09-05T20:37:38.839Z,4.38
2022-09-05T20:43:10.356Z,3.88
2022-09-05T20:43:21.752Z,3.72
2022-09-05T20:43:37.163Z,3.58
2022-09-05T20:49:49.858Z,3.55
2022-09-05T20:54:02.279Z,3.65
2022-09-05T20:54:14.954Z,3.25
2022-09-05T20:54:43.506Z,3.42
2022-09-05T20:57:19.425Z,3.05
2022-09-05T20:59:48.269Z,3.55
2022-09-05T21:02:26.311Z,3.13
2022-09-05T21:05:17.475Z,2.88
2022-09-05T21:08:01.176Z,3.42
2022-09-05T21:10:55.668Z,3.13
2022-09-05T21:13:28.371Z,3.35
2022-09-05T21:15:57.434Z,2.70
2022-09-05T21:18:33.393Z,3.72
2022-09-05T21:21:11.652Z,3.25
2022-09-05T21:24:09.892Z,3.00
2022-09-05T21:26:45.270Z,3.63
2022-09-05T21:29:18.214Z,2.85
2022-09-05T21:31:54.685Z,3.00
2022-09-05T21:34:28.034Z,3.10
2022-09-05T21:37:06.692Z,3.15
2022-09-05T21:39:40.279Z,3.00
2022-09-05T21:42:53.383Z,2.95
2022-09-05T21:47:40.323Z,2.90
2022-09-05T21:47:53.930Z,3.40
2022-09-05T21:50:31.295Z,3.50
2022-09-05T21:54:03.055Z,3.17
2022-09-05T21:59:25.703Z,2.97
2022-09-05T21:59:27.320Z,3.00
2022-09-05T22:01:48.890Z,2.63
2022-09-05T22:04:22.108Z,3.17
2022-09-05T22:06:50.601Z,2.70
2022-09-05T22:09:19.875Z,3.10
2022-09-05T22:11:50.592Z,2.78
2022-09-05T22:14:19.370Z,2.67
2022-09-05T22:16:50.635Z,2.60
2022-09-05T22:19:26.273Z,3.00
2022-09-05T22:22:15.526Z,2.40
2022-09-05T22:24:48.046Z,2.80
2022-09-05T22:27:19.849Z,2.63
2022-09-05T22:29:50.330Z,2.80
2022-09-05T22:32:32.341Z,2.60
2022-09-05T22:35:27.154Z,2.78
2022-09-05T22:37:59.217Z,2.70
2022-09-05T22:40:29.445Z,2.50
2022-09-05T22:42:58.170Z,2.50
2022-09-05T22:45:26.458Z,2.20
2022-09-05T22:47:56.154Z,2.40
2022-09-05T22:50:24.728Z,2.22
2022-09-05T22:52:53.071Z,2.58
2022-09-05T22:55:21.235Z,2.40
2022-09-05T22:57:49.490Z,2.70
2022-09-05T23:00:17.846Z,2.22
2022-09-05T23:02:50.222Z,2.33
2022-09-05T23:05:21.804Z,2.05
2022-09-05T23:07:49.917Z,2.17
2022-09-05T23:10:18.501Z,2.22
2022-09-05T23:12:47.052Z,2.40
2022-09-05T23:15:15.765Z,2.10
2022-09-05T23:17:44.038Z,2.00
2022-09-05T23:20:12.425Z,2.38
2022-09-05T23:22:43.082Z,2.47
2022-09-05T23:25:11.849Z,2.30
2022-09-05T23:27:40.254Z,2.33
2022-09-05T23:30:09.544Z,2.35
2022-09-05T23:32:37.916Z,1.90
2022-09-05T23:35:06.672Z,2.03
2022-09-05T23:37:34.748Z,1.60
2022-09-05T23:40:05.388Z,2.00
2022-09-05T23:42:33.492Z,2.00
2022-09-05T23:45:01.535Z,2.33
2022-09-05T23:47:29.844Z,1.80
2022-09-05T23:49:57.927Z,1.65
2022-09-05T23:52:26.003Z,1.80
2022-09-05T23:54:54.043Z,2.20
2022-09-05T23:57:24.293Z,1.85
2022-09-05T23:59:52.922Z,1.73
